Time;durP1;ratioP1;P1;durP2;ratioP2;P2;SDS_P1;SDS_P2;PMS_P1;PMS_P2;Temp;Humidity;BMP_temperature;BMP_pressure;BME280_temperature;BME280_humidity;BME280_pressure;Samples;Min_cycle;Max_cycle;Signal;HPM_P1;HPM_P2
2023/06/23 00:01:27;;;;;;;9.65;6.90;;;24.10;69.80;;;;;;3972628;29;20058;-59
2023/06/23 00:04:10;;;;;;;10.07;6.68;;;24.10;69.70;;;;;;3972319;29;20058;-51
2023/06/23 00:07:04;;;;;;;7.38;6.57;;;24.10;69.70;;;;;;3972838;29;20506;-49
2023/06/23 00:09:59;;;;;;;7.50;6.72;;;24.10;69.80;;;;;;3972451;29;20058;-51
2023/06/23 00:13:09;;;;;;;6.47;5.82;;;24.10;70.80;;;;;;3972351;29;20111;-51
2023/06/23 00:16:00;;;;;;;7.13;5.78;;;24.10;69.70;;;;;;3971738;29;20057;-53
2023/06/23 00:18:42;;;;;;;8.10;6.00;;;24.10;69.80;;;;;;3972719;29;20061;-52
2023/06/23 00:21:26;;;;;;;5.55;5.05;;;24.10;69.90;;;;;;3972042;29;20150;-49
2023/06/23 00:24:12;;;;;;;6.97;5.10;;;24.10;69.70;;;;;;3972827;29;20062;-52
2023/06/23 00:27:09;;;;;;;5.63;4.78;;;24.10;69.70;;;;;;3972584;29;20063;-59
2023/06/23 00:29:59;;;;;;;6.97;5.57;;;24.10;69.60;;;;;;3972197;29;20154;-58
2023/06/23 00:33:03;;;;;;;5.30;4.85;;;24.10;69.40;;;;;;3962320;29;20066;-59
2023/06/23 00:35:58;;;;;;;7.00;5.68;;;24.10;69.30;;;;;;3971789;29;20062;-57
2023/06/23 00:39:05;;;;;;;5.40;4.95;;;24.10;69.40;;;;;;3979485;29;20198;-59
2023/06/23 00:42:09;;;;;;;5.25;4.75;;;24.10;69.20;;;;;;3960588;29;20502;-58
2023/06/23 00:48:03;;;;;;;5.68;5.07;;;24.10;69.10;;;;;;3972001;29;20065;-59
2023/06/23 00:50:53;;;;;;;4.90;4.50;;;24.10;69.10;;;;;;3971753;29;20107;-58
2023/06/23 00:53:47;;;;;;;5.00;4.55;;;24.10;69.10;;;;;;3961573;29;20066;-49
2023/06/23 00:56:30;;;;;;;5.47;4.53;;;24.10;69.30;;;;;;3970492;29;20061;-54
2023/06/23 00:59:17;;;;;;;9.13;4.70;;;24.10;69.40;;;;;;3972023;29;20049;-53
2023/06/23 01:02:05;;;;;;;6.15;4.75;;;24.10;69.60;;;;;;3960990;29;20065;-51
2023/06/23 01:04:49;;;;;;;6.35;4.93;;;24.00;69.40;;;;;;3971521;29;20076;-52
2023/06/23 01:07:45;;;;;;;5.03;4.57;;;24.10;69.50;;;;;;3971783;29;20050;-50
2023/06/23 01:10:44;;;;;;;5.68;4.25;;;24.10;69.40;;;;;;3956417;29;20181;-53
2023/06/23 01:17:02;;;;;;;6.97;5.20;;;24.10;69.90;;;;;;3956269;29;20066;-50
2023/06/23 01:20:29;;;;;;;5.03;4.50;;;24.00;69.20;;;;;;3955641;29;20062;-51
2023/06/23 01:23:45;;;;;;;6.47;4.95;;;24.00;69.20;;;;;;3962113;29;20143;-52
2023/06/23 01:27:01;;;;;;;7.57;4.93;;;24.10;69.40;;;;;;3970575;29;20061;-50
2023/06/23 01:30:12;;;;;;;4.65;4.20;;;24.00;69.30;;;;;;3971167;29;20115;-51
2023/06/23 01:37:00;;;;;;;5.80;4.35;;;24.00;69.20;;;;;;3970561;29;20057;-53
2023/06/23 01:40:05;;;;;;;4.65;4.22;;;24.00;69.40;;;;;;3970215;29;20594;-57
2023/06/23 01:43:09;;;;;;;4.50;4.10;;;24.00;69.60;;;;;;3971277;29;20077;-55
2023/06/23 01:46:34;;;;;;;5.70;4.68;;;24.00;69.60;;;;;;3959614;29;20406;-57
2023/06/23 01:50:23;;;;;;;5.57;4.13;;;24.00;69.30;;;;;;3977698;29;20402;-54
2023/06/23 01:53:37;;;;;;;5.10;4.05;;;24.00;69.10;;;;;;3956274;29;20296;-48
2023/06/23 01:56:54;;;;;;;5.53;3.90;;;23.90;69.40;;;;;;3945973;29;20054;-57
2023/06/23 02:01:04;;;;;;;4.53;3.80;;;23.90;69.40;;;;;;3895750;30;20057;-55
2023/06/23 02:10:46;;;;;;;5.25;3.85;;;23.90;69.20;;;;;;3881122;30;20064;-58
2023/06/23 02:13:35;;;;;;;4.93;3.83;;;23.90;68.90;;;;;;3871581;30;20065;-48
2023/06/23 02:16:29;;;;;;;3.65;3.35;;;23.90;68.80;;;;;;3872079;30;20068;-58
2023/06/23 02:19:31;;;;;;;7.40;3.55;;;23.90;69.00;;;;;;3969949;29;20471;-56
2023/06/23 02:22:24;;;;;;;3.92;3.50;;;23.90;69.30;;;;;;3956055;30;20160;-56
2023/06/23 02:25:09;;;;;;;6.45;3.53;;;23.90;69.50;;;;;;3955731;29;20526;-57
2023/06/23 02:28:29;;;;;;;4.47;3.83;;;23.90;69.50;;;;;;3956142;29;20062;-55
2023/06/23 02:35:33;;;;;;;7.80;4.32;;;23.90;69.50;;;;;;3954963;29;20119;-56
2023/06/23 02:38:51;;;;;;;7.95;4.13;;;23.90;69.40;;;;;;3955450;29;20061;-57
2023/06/23 02:42:08;;;;;;;5.10;4.03;;;23.90;69.50;;;;;;3945508;29;20699;-55
2023/06/23 02:48:37;;;;;;;4.53;4.13;;;23.90;69.40;;;;;;3940811;30;20882;-49
2023/06/23 02:51:26;;;;;;;5.57;4.15;;;23.90;69.30;;;;;;3946541;29;20112;-52
2023/06/23 02:54:38;;;;;;;6.72;3.92;;;23.90;70.20;;;;;;3955818;29;20062;-50
2023/06/23 02:57:56;;;;;;;7.70;4.15;;;23.90;69.50;;;;;;3958173;29;20103;-49
2023/06/23 03:00:39;;;;;;;5.25;4.30;;;23.90;69.50;;;;;;3957746;29;20062;-54
2023/06/23 03:03:24;;;;;;;6.40;4.05;;;23.90;69.60;;;;;;3958611;30;20135;-52
2023/06/23 03:06:35;;;;;;;6.97;3.83;;;23.90;69.70;;;;;;3948127;30;20103;-49
2023/06/23 03:09:45;;;;;;;6.38;4.43;;;23.90;70.00;;;;;;3947348;30;20070;-49
2023/06/23 03:12:47;;;;;;;4.55;3.90;;;23.90;69.90;;;;;;3958134;30;20069;-47
2023/06/23 03:15:49;;;;;;;5.18;4.00;;;23.90;70.10;;;;;;3943438;30;20059;-53
2023/06/23 03:18:53;;;;;;;7.30;4.22;;;23.90;70.00;;;;;;3943306;30;20063;-50
2023/06/23 03:22:28;;;;;;;7.25;4.15;;;23.80;70.00;;;;;;3960008;29;20083;-49
2023/06/23 03:25:31;;;;;;;4.40;3.72;;;23.80;70.00;;;;;;3957657;29;20066;-50
2023/06/23 03:28:29;;;;;;;5.47;3.45;;;23.90;70.10;;;;;;3955860;29;20263;-53
2023/06/23 03:31:25;;;;;;;9.20;4.40;;;23.80;69.80;;;;;;3957346;29;20066;-50
2023/06/23 03:34:16;;;;;;;5.10;4.18;;;23.80;69.70;;;;;;3957273;29;20062;-47
2023/06/23 03:37:32;;;;;;;7.22;3.90;;;23.80;69.80;;;;;;3946724;30;20084;-51
2023/06/23 03:40:17;;;;;;;4.82;3.67;;;23.80;69.80;;;;;;3957245;29;20066;-52
2023/06/23 03:43:12;;;;;;;7.45;4.40;;;23.80;69.80;;;;;;3957874;30;20521;-52
2023/06/23 03:46:05;;;;;;;5.35;3.78;;;23.80;70.70;;;;;;3957629;30;20518;-52
2023/06/23 03:49:07;;;;;;;6.93;4.40;;;23.80;69.70;;;;;;3957974;30;20050;-53
2023/06/23 03:51:53;;;;;;;7.75;4.80;;;23.80;69.80;;;;;;3957679;30;20058;-50
2023/06/23 03:58:00;;;;;;;6.80;4.70;;;23.80;69.90;;;;;;3957249;30;20475;-51
2023/06/23 04:01:17;;;;;;;8.05;4.43;;;23.70;69.90;;;;;;3957549;30;20518;-51
2023/06/23 04:04:05;;;;;;;6.13;4.97;;;23.70;70.20;;;;;;3957609;30;20480;-51
2023/06/23 04:07:04;;;;;;;7.22;5.15;;;23.70;70.30;;;;;;3956263;29;20122;-52
2023/06/23 04:10:05;;;;;;;6.55;4.85;;;23.70;70.70;;;;;;3942889;30;20055;-53
2023/06/23 04:12:49;;;;;;;7.95;5.13;;;23.70;71.00;;;;;;3956547;30;20404;-54
2023/06/23 04:15:38;;;;;;;8.75;5.68;;;23.70;70.80;;;;;;3955392;29;20144;-54
2023/06/23 04:18:39;;;;;;;6.18;5.10;;;23.70;70.70;;;;;;3955068;29;20507;-51
2023/06/23 04:21:27;;;;;;;7.85;4.68;;;23.70;70.90;;;;;;3964397;29;20069;-53
2023/06/23 04:24:17;;;;;;;8.85;5.70;;;23.70;70.90;;;;;;3964546;29;20058;-51
2023/06/23 04:27:07;;;;;;;9.32;6.15;;;23.70;70.90;;;;;;3973079;29;20061;-54
2023/06/23 04:29:51;;;;;;;9.05;5.93;;;23.70;70.70;;;;;;3972233;29;20177;-52
2023/06/23 04:32:33;;;;;;;10.38;5.65;;;23.70;70.60;;;;;;3972045;29;20062;-50
2023/06/23 04:35:27;;;;;;;6.50;5.47;;;23.70;70.70;;;;;;3971912;29;20518;-54
2023/06/23 04:38:14;;;;;;;6.90;5.90;;;23.70;70.90;;;;;;3972551;29;20062;-48
2023/06/23 04:41:02;;;;;;;8.02;5.97;;;23.70;70.90;;;;;;3971893;29;20061;-51
2023/06/23 04:43:53;;;;;;;9.32;6.68;;;23.70;70.90;;;;;;3970835;29;20151;-50
2023/06/23 04:46:43;;;;;;;9.90;5.75;;;23.70;70.90;;;;;;3971580;29;20061;-51
2023/06/23 04:49:47;;;;;;;8.77;5.95;;;23.70;70.90;;;;;;3964771;29;20518;-51
2023/06/23 04:52:32;;;;;;;6.18;5.50;;;23.70;70.90;;;;;;3964175;29;20135;-50
2023/06/23 04:55:17;;;;;;;8.68;5.93;;;23.70;71.00;;;;;;3972230;29;20411;-51
2023/06/23 04:58:03;;;;;;;8.10;5.95;;;23.70;71.10;;;;;;3971418;29;20057;-53
2023/06/23 05:00:48;;;;;;;7.13;6.13;;;23.70;71.00;;;;;;3971056;29;20062;-58
2023/06/23 05:03:39;;;;;;;9.23;6.10;;;23.70;71.00;;;;;;3971781;29;20165;-57
2023/06/23 05:06:24;;;;;;;10.77;5.90;;;23.60;70.90;;;;;;3971853;29;20502;-53
2023/06/23 05:09:09;;;;;;;7.10;6.05;;;23.70;71.00;;;;;;3971650;29;20054;-46
2023/06/23 05:11:52;;;;;;;8.13;6.15;;;23.70;71.10;;;;;;3971171;29;20062;-53
2023/06/23 05:14:36;;;;;;;7.72;5.32;;;23.70;71.00;;;;;;3986189;29;20057;-55
2023/06/23 05:17:22;;;;;;;7.00;5.75;;;23.60;70.80;;;;;;3974572;29;20146;-55
2023/06/23 05:20:11;;;;;;;8.77;5.47;;;23.70;70.90;;;;;;3971469;29;20071;-54
2023/06/23 05:26:33;;;;;;;10.47;5.50;;;23.70;71.00;;;;;;3971715;29;20065;-50
2023/06/23 05:29:20;;;;;;;7.78;5.60;;;23.60;70.90;;;;;;3971980;29;20074;-52
2023/06/23 05:32:07;;;;;;;6.35;5.75;;;23.60;71.10;;;;;;3956793;29;20150;-49
2023/06/23 05:34:50;;;;;;;7.70;6.30;;;23.60;71.20;;;;;;3958555;29;20135;-49
2023/06/23 05:37:37;;;;;;;6.85;5.57;;;23.60;71.10;;;;;;3956451;29;20066;-49
2023/06/23 05:40:26;;;;;;;9.80;5.60;;;23.60;71.10;;;;;;3962568;29;20506;-47
2023/06/23 05:43:13;;;;;;;8.70;5.97;;;23.60;71.20;;;;;;3970151;29;20539;-47
2023/06/23 05:45:58;;;;;;;7.13;4.93;;;23.60;71.20;;;;;;3968138;29;20512;-45
2023/06/23 05:48:42;;;;;;;6.47;5.00;;;23.60;71.10;;;;;;3956185;29;20053;-51
2023/06/23 05:51:28;;;;;;;6.47;5.38;;;23.60;71.20;;;;;;3957905;29;20074;-55
2023/06/23 05:54:12;;;;;;;6.55;4.97;;;23.60;71.20;;;;;;3970882;29;20215;-56
2023/06/23 05:56:58;;;;;;;6.38;4.85;;;23.60;71.10;;;;;;3970623;29;20066;-51
2023/06/23 05:59:45;;;;;;;6.97;5.30;;;23.60;71.10;;;;;;3971271;29;20430;-49
2023/06/23 06:02:30;;;;;;;5.93;4.85;;;23.60;71.00;;;;;;3971180;29;20054;-48
2023/06/23 06:05:17;;;;;;;5.57;4.95;;;23.60;71.00;;;;;;3971171;29;20081;-48
2023/06/23 06:08:00;;;;;;;7.55;5.22;;;23.60;70.90;;;;;;3970735;29;20191;-51
2023/06/23 06:10:44;;;;;;;6.93;4.97;;;23.60;70.90;;;;;;3960071;29;20196;-46
2023/06/23 06:13:44;;;;;;;5.57;5.00;;;23.60;70.90;;;;;;3971047;29;20077;-50
2023/06/23 06:16:46;;;;;;;5.78;4.80;;;23.60;70.90;;;;;;3970359;29;20065;-54
2023/06/23 06:19:30;;;;;;;7.97;5.35;;;23.60;70.80;;;;;;3963007;29;20542;-55
2023/06/23 06:22:19;;;;;;;6.57;4.93;;;23.60;70.80;;;;;;3967026;29;20207;-54
2023/06/23 06:25:11;;;;;;;7.47;5.32;;;23.70;70.80;;;;;;3956338;29;20057;-55
2023/06/23 06:27:58;;;;;;;7.60;4.93;;;23.70;70.70;;;;;;3969411;29;20062;-53
2023/06/23 06:30:41;;;;;;;4.85;4.40;;;23.70;70.60;;;;;;3972620;29;20066;-54
2023/06/23 06:33:29;;;;;;;7.43;4.95;;;23.80;70.50;;;;;;3972816;29;20164;-55
2023/06/23 06:36:12;;;;;;;5.20;4.03;;;23.80;70.20;;;;;;3973864;29;20142;-55
2023/06/23 06:38:55;;;;;;;6.00;4.70;;;23.80;70.10;;;;;;3973972;29;20061;-55
2023/06/23 06:41:47;;;;;;;4.90;4.43;;;23.90;70.00;;;;;;3974157;29;20062;-54
2023/06/23 06:44:35;;;;;;;4.88;4.47;;;23.90;69.80;;;;;;3972604;29;20215;-53
2023/06/23 06:47:19;;;;;;;6.22;4.50;;;24.00;69.70;;;;;;3973685;29;20203;-47
2023/06/23 06:50:09;;;;;;;4.50;4.00;;;24.10;69.30;;;;;;3973201;29;20061;-49
2023/06/23 06:52:52;;;;;;;4.80;4.38;;;24.20;68.90;;;;;;3973735;29;20066;-54
2023/06/23 06:55:41;;;;;;;4.72;4.30;;;24.20;68.60;;;;;;3974041;29;20097;-50
2023/06/23 06:58:25;;;;;;;5.22;4.72;;;24.20;68.40;;;;;;3973673;29;20058;-49
2023/06/23 07:01:07;;;;;;;5.22;4.60;;;24.20;68.30;;;;;;3973564;29;20108;-54
2023/06/23 07:03:51;;;;;;;6.32;4.55;;;24.30;68.20;;;;;;3973484;29;20068;-55
2023/06/23 07:06:36;;;;;;;6.88;4.75;;;24.30;68.30;;;;;;3972371;29;20058;-55
2023/06/23 07:09:21;;;;;;;6.55;4.63;;;24.30;68.20;;;;;;3973443;29;20057;-54
2023/06/23 07:12:08;;;;;;;4.93;4.53;;;24.40;68.10;;;;;;3973413;29;20135;-55
2023/06/23 07:14:50;;;;;;;4.50;4.10;;;24.40;67.50;;;;;;3973675;29;20181;-54
2023/06/23 07:17:38;;;;;;;7.32;4.85;;;24.40;67.20;;;;;;3973548;29;20135;-55
2023/06/23 07:20:22;;;;;;;4.68;4.20;;;24.50;67.00;;;;;;3973580;29;20398;-56
2023/06/23 07:23:06;;;;;;;5.32;4.43;;;24.50;66.30;;;;;;3972735;29;20066;-51
2023/06/23 07:25:49;;;;;;;4.70;4.20;;;24.60;65.90;;;;;;3972193;29;20414;-52
2023/06/23 07:28:33;;;;;;;4.43;4.03;;;24.60;65.60;;;;;;3967847;29;20138;-50
2023/06/23 07:31:20;;;;;;;5.05;4.53;;;24.70;65.80;;;;;;3975320;29;20509;-51
2023/06/23 07:34:02;;;;;;;;;;;24.70;65.60;;;;;;3988164;29;20057;-49
2023/06/23 07:36:47;;;;;;;3.90;3.55;;;24.70;65.30;;;;;;3958180;29;20372;-55
2023/06/23 07:39:39;;;;;;;6.28;3.80;;;24.80;65.20;;;;;;3973266;29;20083;-56
2023/06/23 07:42:23;;;;;;;3.95;3.50;;;24.80;65.40;;;;;;3971194;29;20113;-51
2023/06/23 07:45:09;;;;;;;3.53;3.22;;;24.80;64.30;;;;;;3956811;29;20468;-56
2023/06/23 07:47:51;;;;;;;3.88;3.30;;;24.80;64.20;;;;;;3979486;29;20057;-50
2023/06/23 07:50:34;;;;;;;5.50;3.13;;;24.90;64.00;;;;;;3997870;29;20402;-54
2023/06/23 07:53:15;;;;;;;4.03;3.72;;;24.90;63.80;;;;;;3956819;29;20090;-53
2023/06/23 07:55:59;;;;;;;6.00;3.45;;;24.90;63.50;;;;;;3966660;29;20123;-53
2023/06/23 07:58:44;;;;;;;3.88;3.55;;;24.90;63.20;;;;;;3972850;29;20398;-50
2023/06/23 08:01:28;;;;;;;6.07;4.28;;;24.90;63.80;;;;;;3972364;29;20494;-50
2023/06/23 08:04:18;;;;;;;4.55;3.90;;;25.00;63.20;;;;;;3972763;29;20070;-49
2023/06/23 08:07:03;;;;;;;3.78;3.47;;;25.00;63.60;;;;;;3957776;29;20626;-50
2023/06/23 08:09:49;;;;;;;4.15;3.85;;;25.00;63.80;;;;;;3957652;29;20057;-52
2023/06/23 08:12:35;;;;;;;3.92;3.35;;;25.00;63.80;;;;;;3958023;29;20062;-46
2023/06/23 08:15:22;;;;;;;3.72;3.30;;;25.00;62.80;;;;;;3964132;29;20164;-48
2023/06/23 08:18:10;;;;;;;4.72;3.28;;;25.00;62.80;;;;;;3964204;29;20053;-47
2023/06/23 08:20:55;;;;;;;3.58;3.28;;;25.00;61.10;;;;;;3972187;29;20169;-51
2023/06/23 08:23:45;;;;;;;3.55;3.20;;;25.00;61.40;;;;;;3972189;29;20062;-50
2023/06/23 08:26:28;;;;;;;4.15;3.42;;;25.00;62.00;;;;;;3956630;29;20146;-51
2023/06/23 08:29:12;;;;;;;3.53;3.22;;;25.00;62.10;;;;;;3957164;29;20415;-50
2023/06/23 08:31:55;;;;;;;3.15;2.78;;;25.00;61.50;;;;;;3957019;29;20057;-49
2023/06/23 08:34:36;;;;;;;3.15;2.90;;;25.00;61.60;;;;;;3957439;29;20057;-48
2023/06/23 08:37:30;;;;;;;3.33;3.08;;;25.00;61.20;;;;;;3960875;29;20972;-46
2023/06/23 08:40:55;;;;;;;;;;;25.10;60.70;;;;;;3972414;29;20093;-49
2023/06/23 08:43:46;;;;;;;2.95;2.72;;;25.10;60.30;;;;;;3956680;29;20415;-49
2023/06/23 08:46:33;;;;;;;3.75;3.15;;;25.10;59.60;;;;;;3969471;29;20057;-45
2023/06/23 08:49:29;;;;;;;3.35;3.05;;;25.10;59.40;;;;;;3965243;29;20089;-51
2023/06/23 08:52:23;;;;;;;3.72;3.33;;;25.10;59.60;;;;;;3968805;29;20411;-49
2023/06/23 08:55:13;;;;;;;4.30;3.10;;;25.10;59.80;;;;;;3956589;29;20123;-49
2023/06/23 08:58:00;;;;;;;3.10;2.90;;;25.20;58.40;;;;;;3961736;29;20065;-46
2023/06/23 09:00:43;;;;;;;4.03;2.78;;;25.20;58.70;;;;;;3971459;29;20058;-50
2023/06/23 09:03:30;;;;;;;3.80;3.53;;;25.20;58.90;;;;;;3971183;29;20567;-51
2023/06/23 09:06:12;;;;;;;4.10;3.70;;;25.30;58.80;;;;;;3971617;29;20065;-46
2023/06/23 09:08:54;;;;;;;3.63;3.33;;;25.30;58.60;;;;;;3971560;29;20053;-48
2023/06/23 09:11:40;;;;;;;3.85;3.13;;;25.30;58.80;;;;;;3956038;29;20062;-51
2023/06/23 09:14:32;;;;;;;3.88;3.58;;;25.30;58.90;;;;;;3949816;29;20406;-46
2023/06/23 09:17:17;;;;;;;3.30;3.00;;;25.30;58.80;;;;;;3971938;29;20524;-51
2023/06/23 09:20:19;;;;;;;5.07;3.47;;;25.30;58.90;;;;;;3971117;29;20588;-48
2023/06/23 09:23:09;;;;;;;3.70;3.40;;;25.40;58.60;;;;;;3960030;29;20058;-54
2023/06/23 09:25:54;;;;;;;4.13;3.85;;;25.40;58.60;;;;;;3960406;29;20187;-53
2023/06/23 09:28:40;;;;;;;4.43;3.42;;;25.40;59.00;;;;;;3971150;29;20065;-54
2023/06/23 09:34:22;;;;;;;4.05;3.33;;;25.50;58.60;;;;;;3969502;29;20062;-52
2023/06/23 09:37:13;;;;;;;4.13;3.70;;;25.50;58.80;;;;;;3970819;29;20115;-52
2023/06/23 09:39:56;;;;;;;3.95;3.65;;;25.50;58.90;;;;;;3971073;29;20057;-50
2023/06/23 09:42:46;;;;;;;3.95;3.65;;;25.50;59.20;;;;;;3971341;29;20187;-49
2023/06/23 09:45:33;;;;;;;4.13;3.55;;;25.60;59.50;;;;;;3959762;29;20071;-55
2023/06/23 09:48:19;;;;;;;3.92;3.60;;;25.60;60.30;;;;;;3970988;29;20073;-49
2023/06/23 09:51:05;;;;;;;3.65;3.35;;;25.60;60.90;;;;;;3967556;29;20111;-50
2023/06/23 09:53:49;;;;;;;4.43;3.75;;;25.60;60.20;;;;;;3969223;29;20058;-49
2023/06/23 09:56:34;;;;;;;3.80;3.50;;;25.60;60.40;;;;;;3970244;29;20066;-52
2023/06/23 09:59:22;;;;;;;3.47;3.28;;;25.70;61.20;;;;;;3966455;29;20641;-52
2023/06/23 10:02:11;;;;;;;6.10;4.78;;;25.70;61.20;;;;;;3956317;29;20084;-50
2023/06/23 10:05:00;;;;;;;4.35;3.95;;;25.70;61.10;;;;;;3950731;29;20180;-51
2023/06/23 10:07:40;;;;;;;3.90;3.30;;;25.70;61.00;;;;;;3970578;29;20437;-51
2023/06/23 10:10:22;;;;;;;3.92;3.50;;;25.80;61.30;;;;;;3971061;29;20074;-54
2023/06/23 10:13:04;;;;;;;4.72;3.58;;;25.80;61.50;;;;;;3969934;29;20066;-49
2023/06/23 10:15:45;;;;;;;3.15;2.95;;;25.80;61.40;;;;;;3970172;29;20057;-52
2023/06/23 10:18:27;;;;;;;2.65;2.55;;;25.80;60.50;;;;;;3970091;29;20062;-51
2023/06/23 10:21:14;;;;;;;3.78;3.45;;;25.80;59.80;;;;;;3970741;29;20111;-47
2023/06/23 10:24:00;;;;;;;5.03;3.03;;;25.80;59.60;;;;;;3970466;29;20191;-48
2023/06/23 10:26:47;;;;;;;2.42;2.30;;;25.80;59.50;;;;;;3969927;29;20050;-51
2023/06/23 10:29:35;;;;;;;2.88;2.67;;;25.80;59.40;;;;;;3969244;29;20143;-50
2023/06/23 10:32:17;;;;;;;3.92;2.83;;;25.80;59.40;;;;;;3970538;29;20066;-52
2023/06/23 10:35:08;;;;;;;3.10;2.80;;;25.90;59.30;;;;;;3966962;29;20054;-51
2023/06/23 10:38:04;;;;;;;3.20;2.90;;;25.90;59.30;;;;;;3969413;29;20066;-52
2023/06/23 10:40:51;;;;;;;3.45;3.15;;;25.90;59.10;;;;;;3970463;29;20050;-52
2023/06/23 10:43:42;;;;;;;3.15;2.95;;;25.90;58.60;;;;;;3970190;29;20061;-48
2023/06/23 10:46:24;;;;;;;3.15;2.95;;;25.90;58.70;;;;;;3971034;29;20134;-50
2023/06/23 10:49:22;;;;;;;4.32;2.80;;;25.90;59.00;;;;;;3970500;29;20552;-49
2023/06/23 10:52:15;;;;;;;3.20;3.00;;;25.90;58.70;;;;;;3970784;29;20054;-50
2023/06/23 10:55:41;;;;;;;3.17;2.90;;;25.90;59.70;;;;;;3970518;29;20107;-46
2023/06/23 10:59:17;;;;;;;3.60;2.97;;;25.90;59.20;;;;;;3959319;29;20099;-46
2023/06/23 11:02:23;;;;;;;3.20;2.90;;;26.00;59.10;;;;;;3970318;29;20655;-48
2023/06/23 11:05:24;;;;;;;3.03;2.80;;;26.00;58.70;;;;;;3955332;29;20132;-49
2023/06/23 11:08:32;;;;;;;3.45;3.25;;;25.90;58.90;;;;;;3955802;29;20181;-54
2023/06/23 11:11:26;;;;;;;3.63;3.33;;;26.00;59.10;;;;;;3956001;29;20819;-52
2023/06/23 11:14:53;;;;;;;3.55;3.15;;;26.00;59.10;;;;;;3967087;29;20147;-50
2023/06/23 11:17:51;;;;;;;4.47;3.92;;;26.00;58.90;;;;;;3962703;29;20065;-55
2023/06/23 11:20:41;;;;;;;5.78;3.60;;;26.00;58.90;;;;;;3961806;29;20588;-51
2023/06/23 11:23:24;;;;;;;4.13;3.60;;;26.00;59.00;;;;;;3972524;29;20062;-49
2023/06/23 11:26:28;;;;;;;4.00;3.70;;;26.00;59.00;;;;;;3972098;29;20379;-52
2023/06/23 11:29:18;;;;;;;8.30;3.65;;;26.00;58.90;;;;;;3961322;29;20126;-55
2023/06/23 11:32:06;;;;;;;4.80;3.40;;;26.00;58.70;;;;;;3957191;29;20220;-49
2023/06/23 11:34:57;;;;;;;4.35;3.95;;;26.00;58.70;;;;;;3978657;29;20100;-54
2023/06/23 11:38:03;;;;;;;4.22;3.80;;;26.00;58.70;;;;;;3987647;29;20077;-53
2023/06/23 11:40:45;;;;;;;6.70;3.65;;;26.00;58.60;;;;;;3988184;29;20061;-55
2023/06/23 11:43:38;;;;;;;4.55;3.83;;;26.00;58.30;;;;;;3976830;29;20057;-52
2023/06/23 11:46:23;;;;;;;4.43;4.03;;;26.00;58.30;;;;;;3966127;29;20066;-52
2023/06/23 11:49:13;;;;;;;5.43;3.75;;;26.00;58.30;;;;;;3972782;29;20058;-50
2023/06/23 11:52:10;;;;;;;4.30;3.50;;;26.00;58.10;;;;;;3972407;29;20120;-52
2023/06/23 11:55:05;;;;;;;3.90;3.53;;;26.00;57.80;;;;;;3966941;29;20428;-52
2023/06/23 11:57:57;;;;;;;4.40;4.10;;;26.00;57.70;;;;;;3957573;29;20058;-51
2023/06/23 12:00:42;;;;;;;4.82;4.00;;;26.00;57.60;;;;;;3964867;29;20049;-53
2023/06/23 12:03:31;;;;;;;4.18;3.88;;;26.00;57.70;;;;;;3972730;29;20510;-52
2023/06/23 12:06:44;;;;;;;5.47;5.07;;;26.00;58.00;;;;;;3972387;29;20086;-53
2023/06/23 12:10:02;;;;;;;4.45;4.10;;;26.10;58.00;;;;;;3972237;29;20077;-52
2023/06/23 12:12:48;;;;;;;4.97;4.40;;;26.10;57.50;;;;;;3971134;29;20065;-50
2023/06/23 12:15:36;;;;;;;7.65;4.38;;;26.10;57.80;;;;;;3987241;29;20414;-47
2023/06/23 12:18:25;;;;;;;3.60;3.40;;;26.10;57.50;;;;;;3957301;29;20062;-49
2023/06/23 12:21:10;;;;;;;4.55;4.05;;;26.10;57.20;;;;;;3957082;29;20078;-50
2023/06/23 12:23:52;;;;;;;4.55;3.65;;;26.10;56.70;;;;;;3969883;29;20058;-51
2023/06/23 12:26:44;;;;;;;3.55;3.22;;;26.10;55.90;;;;;;3971694;29;20115;-49
2023/06/23 12:29:38;;;;;;;;;;;26.10;55.60;;;;;;3972211;29;21752;-50
2023/06/23 12:32:29;;;;;;;3.38;3.08;;;26.10;56.10;;;;;;3971071;29;20394;-48
2023/06/23 12:38:46;;;;;;;3.40;3.10;;;26.10;55.40;;;;;;3972047;29;20061;-49
2023/06/23 12:41:51;;;;;;;4.13;3.75;;;26.10;55.20;;;;;;3971725;29;20200;-49
2023/06/23 12:44:36;;;;;;;3.33;3.13;;;26.10;54.30;;;;;;3971686;29;20067;-52
2023/06/23 12:47:18;;;;;;;4.82;3.53;;;26.10;55.00;;;;;;3971460;29;20061;-50
2023/06/23 12:50:17;;;;;;;2.97;2.70;;;26.10;54.60;;;;;;3971078;29;20163;-53
2023/06/23 12:53:14;;;;;;;3.42;3.13;;;26.20;53.70;;;;;;3956568;29;20523;-54
2023/06/23 12:55:55;;;;;;;4.38;3.33;;;26.20;53.70;;;;;;3957271;29;20195;-51
2023/06/23 12:58:41;;;;;;;3.40;2.92;;;26.20;53.80;;;;;;3956960;29;20069;-51
2023/06/23 13:01:26;;;;;;;3.25;3.05;;;26.20;53.40;;;;;;3962278;29;20411;-49
2023/06/23 13:04:20;;;;;;;3.17;2.88;;;26.20;53.60;;;;;;3971726;29;20142;-54
2023/06/23 13:07:04;;;;;;;3.67;3.28;;;26.20;54.00;;;;;;3971172;29;20074;-51
2023/06/23 13:09:57;;;;;;;3.35;3.08;;;26.20;54.40;;;;;;3971601;29;20050;-50
2023/06/23 13:12:39;;;;;;;3.10;2.80;;;26.20;53.70;;;;;;3956823;29;20062;-48
2023/06/23 13:15:21;;;;;;;2.72;2.55;;;26.20;53.40;;;;;;3955977;29;20066;-49
2023/06/23 13:18:05;;;;;;;3.17;2.80;;;26.30;53.10;;;;;;3956499;29;20627;-47
2023/06/23 13:20:49;;;;;;;5.13;3.35;;;26.20;53.00;;;;;;3959750;29;20518;-51
2023/06/23 13:23:43;;;;;;;4.25;3.15;;;26.30;53.70;;;;;;3971311;29;20148;-52
2023/06/23 13:26:29;;;;;;;2.72;2.53;;;26.30;53.30;;;;;;3970651;29;20188;-54
2023/06/23 13:29:13;;;;;;;2.83;2.63;;;26.30;53.20;;;;;;3971581;29;20069;-48
2023/06/23 13:32:03;;;;;;;3.00;2.33;;;26.30;52.50;;;;;;3959874;29;20111;-49
2023/06/23 13:34:50;;;;;;;2.80;2.60;;;26.30;53.00;;;;;;3959988;29;20070;-48
2023/06/23 13:37:34;;;;;;;4.43;2.70;;;26.30;53.00;;;;;;3971341;29;20054;-47
2023/06/23 13:40:16;;;;;;;6.53;2.60;;;26.30;52.50;;;;;;3959635;29;20065;-52
2023/06/23 13:43:01;;;;;;;4.72;2.70;;;26.30;51.60;;;;;;3971028;29;20146;-50
2023/06/23 13:46:01;;;;;;;2.78;2.35;;;26.30;52.30;;;;;;3970847;29;20058;-53
2023/06/23 13:48:47;;;;;;;3.15;2.60;;;26.30;52.40;;;;;;3971273;29;20053;-50
2023/06/23 13:51:32;;;;;;;3.72;2.50;;;26.30;52.10;;;;;;3970948;29;20058;-50
2023/06/23 13:54:14;;;;;;;3.05;2.85;;;26.30;52.10;;;;;;3971256;29;20412;-49
2023/06/23 13:56:57;;;;;;;2.53;2.30;;;26.30;52.30;;;;;;3970685;29;20057;-50
2023/06/23 13:59:42;;;;;;;3.00;2.40;;;26.30;52.30;;;;;;3971378;29;20058;-52
2023/06/23 14:02:33;;;;;;;2.53;2.30;;;26.30;52.50;;;;;;3955864;29;20441;-53
2023/06/23 14:05:18;;;;;;;2.17;1.98;;;26.30;51.90;;;;;;3955806;29;20869;-52
2023/06/23 14:08:03;;;;;;;2.20;2.10;;;26.30;51.10;;;;;;3955678;29;20062;-54
2023/06/23 14:10:57;;;;;;;2.28;1.90;;;26.30;51.30;;;;;;3974064;29;20192;-51
2023/06/23 14:13:40;;;;;;;3.50;2.10;;;26.30;50.60;;;;;;3970566;29;20098;-49
2023/06/23 14:16:33;;;;;;;4.20;2.10;;;26.30;50.00;;;;;;3959695;29;20054;-49
2023/06/23 14:19:14;;;;;;;2.95;2.00;;;26.30;49.80;;;;;;3970833;29;20146;-49
2023/06/23 14:22:03;;;;;;;2.42;2.22;;;26.30;49.40;;;;;;3971132;29;20567;-52
2023/06/23 14:24:54;;;;;;;2.40;2.20;;;26.30;49.50;;;;;;3970598;29;20058;-50
2023/06/23 14:27:39;;;;;;;2.60;2.30;;;26.30;50.00;;;;;;3959729;29;20069;-51
2023/06/23 14:30:24;;;;;;;2.10;2.00;;;26.30;50.10;;;;;;3966256;29;20082;-51
2023/06/23 14:33:12;;;;;;;3.40;2.00;;;26.30;49.50;;;;;;3955736;29;20066;-47
2023/06/23 14:35:56;;;;;;;4.38;1.83;;;26.30;48.60;;;;;;3955765;29;20219;-48
2023/06/23 14:38:42;;;;;;;1.98;1.85;;;26.30;48.70;;;;;;3955230;29;20066;-52
2023/06/23 14:41:31;;;;;;;1.70;1.60;;;26.30;49.10;;;;;;3955339;29;20416;-52
2023/06/23 14:44:13;;;;;;;3.45;2.03;;;26.30;49.30;;;;;;3955830;29;20529;-53
2023/06/23 14:46:57;;;;;;;2.13;1.92;;;26.30;48.30;;;;;;3956016;29;20180;-53
2023/06/23 14:49:41;;;;;;;2.05;1.60;;;26.30;48.10;;;;;;3960010;29;20083;-47
2023/06/23 14:55:32;;;;;;;2.78;2.00;;;26.30;47.00;;;;;;3972060;29;20463;-51
2023/06/23 14:58:16;;;;;;;2.28;1.98;;;26.30;47.20;;;;;;3973060;29;20070;-53
2023/06/23 15:00:57;;;;;;;2.45;1.73;;;26.30;47.20;;;;;;3972972;29;20062;-54
2023/06/23 15:03:41;;;;;;;2.00;1.90;;;26.30;46.80;;;;;;3973266;29;20079;-54
2023/06/23 15:06:29;;;;;;;3.22;1.90;;;26.20;46.60;;;;;;3973533;29;20054;-53
2023/06/23 15:09:17;;;;;;;2.83;1.70;;;26.30;46.70;;;;;;3962073;29;20073;-51
2023/06/23 15:12:15;;;;;;;2.17;1.95;;;26.30;47.20;;;;;;3973297;29;20057;-51
2023/06/23 15:14:57;;;;;;;2.15;1.67;;;26.30;47.40;;;;;;3972563;29;20136;-47
2023/06/23 15:17:44;;;;;;;3.80;2.10;;;26.20;47.50;;;;;;3975602;29;20066;-50
2023/06/23 15:20:30;;;;;;;2.63;2.38;;;26.20;47.50;;;;;;3958352;29;20192;-50
2023/06/23 15:23:22;;;;;;;2.92;2.33;;;26.20;47.60;;;;;;3971566;29;20061;-51
2023/06/23 15:26:04;;;;;;;3.15;2.85;;;26.20;47.50;;;;;;3958193;29;20517;-51
2023/06/23 15:29:03;;;;;;;2.70;2.50;;;26.20;47.70;;;;;;3971040;29;20106;-49
2023/06/23 15:31:45;;;;;;;3.13;2.05;;;26.20;47.50;;;;;;3972815;29;20195;-50
2023/06/23 15:34:29;;;;;;;2.75;2.47;;;26.20;48.20;;;;;;3972790;29;20135;-51